sensor_id;sensor_type;location;lat;lon;timestamp;P1;durP1;ratioP1;P2;durP2;ratioP2
74510;SDS011;62991;50.040;18.400;2023-09-08T00:00:34;17.25;;;7.22;;
74510;SDS011;62991;50.040;18.400;2023-09-08T00:03:35;12.32;;;7.45;;
74510;SDS011;62991;50.040;18.400;2023-09-08T00:06:35;17.50;;;8.70;;
74510;SDS011;62991;50.040;18.400;2023-09-08T00:09:36;16.88;;;8.60;;
74510;SDS011;62991;50.040;18.400;2023-09-08T00:12:37;18.33;;;8.88;;
74510;SDS011;62991;50.040;18.400;2023-09-08T00:15:38;17.08;;;9.27;;
74510;SDS011;62991;50.040;18.400;2023-09-08T00:18:38;17.02;;;8.30;;
74510;SDS011;62991;50.040;18.400;2023-09-08T00:21:39;19.35;;;8.55;;
74510;SDS011;62991;50.040;18.400;2023-09-08T00:24:39;17.42;;;8.77;;
74510;SDS011;62991;50.040;18.400;2023-09-08T00:27:40;17.80;;;8.13;;
74510;SDS011;62991;50.040;18.400;2023-09-08T00:30:41;16.83;;;8.88;;
74510;SDS011;62991;50.040;18.400;2023-09-08T00:33:42;12.80;;;7.30;;
74510;SDS011;62991;50.040;18.400;2023-09-08T00:36:44;17.60;;;9.00;;
74510;SDS011;62991;50.040;18.400;2023-09-08T00:39:44;18.05;;;8.63;;
74510;SDS011;62991;50.040;18.400;2023-09-08T00:42:45;19.80;;;9.63;;
74510;SDS011;62991;50.040;18.400;2023-09-08T00:45:47;16.88;;;8.77;;
74510;SDS011;62991;50.040;18.400;2023-09-08T00:48:48;15.05;;;8.13;;
74510;SDS011;62991;50.040;18.400;2023-09-08T00:51:49;20.58;;;8.18;;
74510;SDS011;62991;50.040;18.400;2023-09-08T00:54:50;13.02;;;6.85;;
74510;SDS011;62991;50.040;18.400;2023-09-08T00:57:50;17.48;;;7.57;;
74510;SDS011;62991;50.040;18.400;2023-09-08T01:00:51;14.93;;;8.20;;
74510;SDS011;62991;50.040;18.400;2023-09-08T01:03:52;14.82;;;7.63;;
74510;SDS011;62991;50.040;18.400;2023-09-08T01:06:52;12.35;;;6.57;;
74510;SDS011;62991;50.040;18.400;2023-09-08T01:09:54;14.73;;;7.50;;
74510;SDS011;62991;50.040;18.400;2023-09-08T01:12:55;17.10;;;7.70;;
74510;SDS011;62991;50.040;18.400;2023-09-08T01:15:56;17.45;;;7.05;;
74510;SDS011;62991;50.040;18.400;2023-09-08T01:18:56;14.95;;;7.20;;
74510;SDS011;62991;50.040;18.400;2023-09-08T01:22:14;16.63;;;7.57;;
74510;SDS011;62991;50.040;18.400;2023-09-08T01:25:25;16.33;;;8.05;;
74510;SDS011;62991;50.040;18.400;2023-09-08T01:28:26;15.27;;;7.53;;
74510;SDS011;62991;50.040;18.400;2023-09-08T01:31:28;13.45;;;7.32;;
74510;SDS011;62991;50.040;18.400;2023-09-08T01:34:29;15.60;;;7.57;;
74510;SDS011;62991;50.040;18.400;2023-09-08T01:37:30;17.17;;;7.30;;
74510;SDS011;62991;50.040;18.400;2023-09-08T01:40:31;14.63;;;7.22;;
74510;SDS011;62991;50.040;18.400;2023-09-08T01:43:32;14.32;;;7.28;;
74510;SDS011;62991;50.040;18.400;2023-09-08T01:46:32;17.55;;;7.50;;
74510;SDS011;62991;50.040;18.400;2023-09-08T01:49:33;16.13;;;7.70;;
74510;SDS011;62991;50.040;18.400;2023-09-08T01:52:34;17.40;;;7.95;;
74510;SDS011;62991;50.040;18.400;2023-09-08T01:55:35;14.52;;;7.78;;
74510;SDS011;62991;50.040;18.400;2023-09-08T01:58:35;15.95;;;7.60;;
74510;SDS011;62991;50.040;18.400;2023-09-08T02:01:36;16.55;;;8.15;;
74510;SDS011;62991;50.040;18.400;2023-09-08T02:04:37;17.73;;;8.48;;
74510;SDS011;62991;50.040;18.400;2023-09-08T02:07:37;18.25;;;8.20;;
74510;SDS011;62991;50.040;18.400;2023-09-08T02:10:41;14.07;;;7.47;;
74510;SDS011;62991;50.040;18.400;2023-09-08T02:13:41;14.75;;;8.52;;
74510;SDS011;62991;50.040;18.400;2023-09-08T02:16:42;16.20;;;7.22;;
74510;SDS011;62991;50.040;18.400;2023-09-08T02:19:44;13.40;;;7.90;;
74510;SDS011;62991;50.040;18.400;2023-09-08T02:22:45;15.65;;;7.80;;
74510;SDS011;62991;50.040;18.400;2023-09-08T02:25:48;16.45;;;8.75;;
74510;SDS011;62991;50.040;18.400;2023-09-08T02:28:48;15.43;;;7.95;;
74510;SDS011;62991;50.040;18.400;2023-09-08T02:31:49;20.85;;;8.48;;
74510;SDS011;62991;50.040;18.400;2023-09-08T02:34:50;16.83;;;8.40;;
74510;SDS011;62991;50.040;18.400;2023-09-08T02:37:50;16.60;;;8.07;;
74510;SDS011;62991;50.040;18.400;2023-09-08T02:40:51;16.88;;;7.60;;
74510;SDS011;62991;50.040;18.400;2023-09-08T02:43:52;15.60;;;7.97;;
74510;SDS011;62991;50.040;18.400;2023-09-08T02:46:53;17.02;;;7.32;;
74510;SDS011;62991;50.040;18.400;2023-09-08T02:49:53;14.50;;;7.40;;
74510;SDS011;62991;50.040;18.400;2023-09-08T02:52:54;19.30;;;9.07;;
74510;SDS011;62991;50.040;18.400;2023-09-08T02:55:55;16.25;;;8.05;;
74510;SDS011;62991;50.040;18.400;2023-09-08T02:58:56;13.90;;;6.85;;
74510;SDS011;62991;50.040;18.400;2023-09-08T03:01:56;17.38;;;8.15;;
74510;SDS011;62991;50.040;18.400;2023-09-08T03:04:58;16.60;;;8.15;;
74510;SDS011;62991;50.040;18.400;2023-09-08T03:08:00;16.52;;;7.63;;
74510;SDS011;62991;50.040;18.400;2023-09-08T03:11:01;16.00;;;7.63;;
74510;SDS011;62991;50.040;18.400;2023-09-08T03:14:01;16.10;;;8.57;;
74510;SDS011;62991;50.040;18.400;2023-09-08T03:17:02;11.93;;;6.78;;
74510;SDS011;62991;50.040;18.400;2023-09-08T03:20:03;16.05;;;7.53;;
74510;SDS011;62991;50.040;18.400;2023-09-08T03:23:07;13.75;;;7.07;;
74510;SDS011;62991;50.040;18.400;2023-09-08T03:26:08;14.55;;;7.40;;
74510;SDS011;62991;50.040;18.400;2023-09-08T03:29:09;12.82;;;7.68;;
74510;SDS011;62991;50.040;18.400;2023-09-08T03:32:10;15.57;;;7.57;;
74510;SDS011;62991;50.040;18.400;2023-09-08T03:35:11;15.90;;;7.18;;
74510;SDS011;62991;50.040;18.400;2023-09-08T03:38:12;13.73;;;7.63;;
74510;SDS011;62991;50.040;18.400;2023-09-08T03:41:12;18.33;;;8.43;;
74510;SDS011;62991;50.040;18.400;2023-09-08T03:44:13;16.77;;;8.50;;
74510;SDS011;62991;50.040;18.400;2023-09-08T03:47:14;13.55;;;7.57;;
74510;SDS011;62991;50.040;18.400;2023-09-08T03:50:14;15.77;;;7.60;;
74510;SDS011;62991;50.040;18.400;2023-09-08T03:53:15;15.27;;;8.20;;
74510;SDS011;62991;50.040;18.400;2023-09-08T03:56:16;14.82;;;7.85;;
74510;SDS011;62991;50.040;18.400;2023-09-08T03:59:16;14.38;;;7.65;;
74510;SDS011;62991;50.040;18.400;2023-09-08T04:02:17;14.95;;;8.18;;
74510;SDS011;62991;50.040;18.400;2023-09-08T04:05:18;16.13;;;7.72;;
74510;SDS011;62991;50.040;18.400;2023-09-08T04:08:19;18.10;;;8.90;;
74510;SDS011;62991;50.040;18.400;2023-09-08T04:11:19;14.02;;;7.95;;
74510;SDS011;62991;50.040;18.400;2023-09-08T04:14:20;16.77;;;8.48;;
74510;SDS011;62991;50.040;18.400;2023-09-08T04:17:23;15.98;;;8.00;;
74510;SDS011;62991;50.040;18.400;2023-09-08T04:20:24;17.27;;;8.93;;
74510;SDS011;62991;50.040;18.400;2023-09-08T04:23:25;15.63;;;7.90;;
74510;SDS011;62991;50.040;18.400;2023-09-08T04:26:26;19.13;;;8.82;;
74510;SDS011;62991;50.040;18.400;2023-09-08T04:29:26;16.45;;;8.55;;
74510;SDS011;62991;50.040;18.400;2023-09-08T04:32:27;19.52;;;8.93;;
74510;SDS011;62991;50.040;18.400;2023-09-08T04:35:28;15.77;;;8.73;;
74510;SDS011;62991;50.040;18.400;2023-09-08T04:38:28;17.23;;;9.02;;
74510;SDS011;62991;50.040;18.400;2023-09-08T04:41:29;18.38;;;8.60;;
74510;SDS011;62991;50.040;18.400;2023-09-08T04:44:29;15.32;;;8.75;;
74510;SDS011;62991;50.040;18.400;2023-09-08T04:47:30;16.20;;;8.95;;
74510;SDS011;62991;50.040;18.400;2023-09-08T04:50:31;16.85;;;8.40;;
74510;SDS011;62991;50.040;18.400;2023-09-08T04:53:31;16.67;;;8.60;;
74510;SDS011;62991;50.040;18.400;2023-09-08T04:56:33;14.55;;;8.75;;
74510;SDS011;62991;50.040;18.400;2023-09-08T04:59:33;19.25;;;9.55;;
74510;SDS011;62991;50.040;18.400;2023-09-08T05:02:36;22.48;;;9.23;;
74510;SDS011;62991;50.040;18.400;2023-09-08T05:05:37;17.42;;;8.73;;
74510;SDS011;62991;50.040;18.400;2023-09-08T05:08:39;13.85;;;8.15;;
74510;SDS011;62991;50.040;18.400;2023-09-08T05:11:40;22.80;;;9.27;;
74510;SDS011;62991;50.040;18.400;2023-09-08T05:14:41;20.95;;;9.25;;
74510;SDS011;62991;50.040;18.400;2023-09-08T05:17:42;19.75;;;8.98;;
74510;SDS011;62991;50.040;18.400;2023-09-08T05:20:43;16.98;;;9.02;;
74510;SDS011;62991;50.040;18.400;2023-09-08T05:23:43;17.98;;;9.48;;
74510;SDS011;62991;50.040;18.400;2023-09-08T05:26:44;22.67;;;9.57;;
74510;SDS011;62991;50.040;18.400;2023-09-08T05:29:45;21.83;;;10.05;;
74510;SDS011;62991;50.040;18.400;2023-09-08T05:32:45;16.52;;;8.98;;
74510;SDS011;62991;50.040;18.400;2023-09-08T05:35:46;19.52;;;9.88;;
74510;SDS011;62991;50.040;18.400;2023-09-08T05:38:47;16.13;;;9.07;;
74510;SDS011;62991;50.040;18.400;2023-09-08T05:41:48;20.48;;;9.80;;
74510;SDS011;62991;50.040;18.400;2023-09-08T05:44:48;17.73;;;8.95;;
74510;SDS011;62991;50.040;18.400;2023-09-08T05:47:49;21.10;;;10.18;;
74510;SDS011;62991;50.040;18.400;2023-09-08T05:50:50;19.63;;;10.18;;
74510;SDS011;62991;50.040;18.400;2023-09-08T05:53:51;22.60;;;10.60;;
74510;SDS011;62991;50.040;18.400;2023-09-08T05:56:52;21.38;;;10.80;;
74510;SDS011;62991;50.040;18.400;2023-09-08T05:59:52;20.20;;;10.68;;
74510;SDS011;62991;50.040;18.400;2023-09-08T06:02:53;19.77;;;9.45;;
74510;SDS011;62991;50.040;18.400;2023-09-08T06:05:55;22.65;;;9.45;;
74510;SDS011;62991;50.040;18.400;2023-09-08T06:08:59;21.35;;;10.23;;
74510;SDS011;62991;50.040;18.400;2023-09-08T06:11:59;19.55;;;10.13;;
74510;SDS011;62991;50.040;18.400;2023-09-08T06:15:01;17.52;;;9.65;;
74510;SDS011;62991;50.040;18.400;2023-09-08T06:18:03;19.42;;;9.77;;
74510;SDS011;62991;50.040;18.400;2023-09-08T06:21:04;20.90;;;10.13;;
74510;SDS011;62991;50.040;18.400;2023-09-08T06:24:05;21.33;;;10.05;;
74510;SDS011;62991;50.040;18.400;2023-09-08T06:27:05;19.92;;;9.80;;
74510;SDS011;62991;50.040;18.400;2023-09-08T06:30:07;19.80;;;10.23;;
74510;SDS011;62991;50.040;18.400;2023-09-08T06:33:08;19.73;;;10.02;;
74510;SDS011;62991;50.040;18.400;2023-09-08T06:36:09;17.23;;;8.90;;
74510;SDS011;62991;50.040;18.400;2023-09-08T06:39:09;18.77;;;9.02;;
74510;SDS011;62991;50.040;18.400;2023-09-08T06:42:10;16.10;;;9.05;;
74510;SDS011;62991;50.040;18.400;2023-09-08T06:45:11;18.60;;;8.75;;
74510;SDS011;62991;50.040;18.400;2023-09-08T06:48:11;14.40;;;7.47;;
74510;SDS011;62991;50.040;18.400;2023-09-08T06:51:12;15.73;;;7.35;;
74510;SDS011;62991;50.040;18.400;2023-09-08T06:54:13;14.57;;;7.22;;
74510;SDS011;62991;50.040;18.400;2023-09-08T06:57:14;16.25;;;7.63;;
74510;SDS011;62991;50.040;18.400;2023-09-08T07:00:16;16.45;;;7.82;;
74510;SDS011;62991;50.040;18.400;2023-09-08T07:03:17;14.55;;;7.30;;
74510;SDS011;62991;50.040;18.400;2023-09-08T07:06:18;13.25;;;6.47;;
74510;SDS011;62991;50.040;18.400;2023-09-08T07:09:18;12.52;;;6.80;;
74510;SDS011;62991;50.040;18.400;2023-09-08T07:12:19;17.88;;;9.23;;
74510;SDS011;62991;50.040;18.400;2023-09-08T07:15:20;21.27;;;9.32;;
74510;SDS011;62991;50.040;18.400;2023-09-08T07:18:20;33.50;;;12.38;;
74510;SDS011;62991;50.040;18.400;2023-09-08T07:21:21;19.42;;;9.73;;
74510;SDS011;62991;50.040;18.400;2023-09-08T07:24:22;16.55;;;8.63;;
74510;SDS011;62991;50.040;18.400;2023-09-08T07:27:24;21.02;;;9.38;;
74510;SDS011;62991;50.040;18.400;2023-09-08T07:30:24;18.13;;;8.43;;
74510;SDS011;62991;50.040;18.400;2023-09-08T07:33:26;16.35;;;7.30;;
74510;SDS011;62991;50.040;18.400;2023-09-08T07:36:26;17.25;;;7.80;;
74510;SDS011;62991;50.040;18.400;2023-09-08T07:39:27;16.25;;;7.43;;
74510;SDS011;62991;50.040;18.400;2023-09-08T07:42:28;17.05;;;8.18;;
74510;SDS011;62991;50.040;18.400;2023-09-08T07:45:28;16.23;;;8.55;;
74510;SDS011;62991;50.040;18.400;2023-09-08T07:48:29;16.58;;;7.82;;
74510;SDS011;62991;50.040;18.400;2023-09-08T07:51:30;18.98;;;8.82;;
74510;SDS011;62991;50.040;18.400;2023-09-08T07:54:30;18.48;;;8.75;;
74510;SDS011;62991;50.040;18.400;2023-09-08T07:57:31;13.85;;;7.82;;
74510;SDS011;62991;50.040;18.400;2023-09-08T08:00:32;15.60;;;8.70;;
74510;SDS011;62991;50.040;18.400;2023-09-08T08:03:32;17.63;;;9.35;;
74510;SDS011;62991;50.040;18.400;2023-09-08T08:06:36;14.23;;;8.20;;
74510;SDS011;62991;50.040;18.400;2023-09-08T08:09:37;16.75;;;8.77;;
74510;SDS011;62991;50.040;18.400;2023-09-08T08:12:38;17.00;;;8.13;;
74510;SDS011;62991;50.040;18.400;2023-09-08T08:15:40;17.50;;;8.50;;
74510;SDS011;62991;50.040;18.400;2023-09-08T08:18:42;16.63;;;7.80;;
74510;SDS011;62991;50.040;18.400;2023-09-08T08:21:43;14.48;;;7.75;;
74510;SDS011;62991;50.040;18.400;2023-09-08T08:24:43;18.63;;;8.45;;
74510;SDS011;62991;50.040;18.400;2023-09-08T08:27:44;14.80;;;7.00;;
74510;SDS011;62991;50.040;18.400;2023-09-08T08:30:45;13.02;;;7.30;;
74510;SDS011;62991;50.040;18.400;2023-09-08T08:33:47;13.95;;;6.95;;
74510;SDS011;62991;50.040;18.400;2023-09-08T08:36:47;18.15;;;7.28;;
74510;SDS011;62991;50.040;18.400;2023-09-08T08:39:48;13.48;;;6.78;;
74510;SDS011;62991;50.040;18.400;2023-09-08T08:42:49;15.45;;;6.22;;
74510;SDS011;62991;50.040;18.400;2023-09-08T08:45:55;14.15;;;6.38;;
74510;SDS011;62991;50.040;18.400;2023-09-08T08:48:58;13.93;;;6.50;;
74510;SDS011;62991;50.040;18.400;2023-09-08T08:52:02;13.20;;;5.75;;
74510;SDS011;62991;50.040;18.400;2023-09-08T08:55:07;14.85;;;5.70;;
74510;SDS011;62991;50.040;18.400;2023-09-08T08:58:08;13.77;;;5.65;;
74510;SDS011;62991;50.040;18.400;2023-09-08T09:01:10;13.27;;;5.82;;
74510;SDS011;62991;50.040;18.400;2023-09-08T09:04:12;9.55;;;5.50;;
74510;SDS011;62991;50.040;18.400;2023-09-08T09:07:13;10.35;;;5.15;;
74510;SDS011;62991;50.040;18.400;2023-09-08T09:10:15;9.10;;;5.18;;
74510;SDS011;62991;50.040;18.400;2023-09-08T09:13:16;9.27;;;5.30;;
74510;SDS011;62991;50.040;18.400;2023-09-08T09:16:16;9.98;;;4.43;;
74510;SDS011;62991;50.040;18.400;2023-09-08T09:19:21;9.57;;;5.28;;
74510;SDS011;62991;50.040;18.400;2023-09-08T09:22:36;11.13;;;4.80;;
74510;SDS011;62991;50.040;18.400;2023-09-08T09:25:37;10.02;;;5.40;;
74510;SDS011;62991;50.040;18.400;2023-09-08T09:28:46;11.80;;;5.55;;
74510;SDS011;62991;50.040;18.400;2023-09-08T09:31:55;11.15;;;5.65;;
74510;SDS011;62991;50.040;18.400;2023-09-08T09:34:57;8.43;;;4.80;;
74510;SDS011;62991;50.040;18.400;2023-09-08T09:38:01;14.82;;;5.15;;
74510;SDS011;62991;50.040;18.400;2023-09-08T09:41:03;15.50;;;6.07;;
74510;SDS011;62991;50.040;18.400;2023-09-08T09:44:03;13.60;;;5.68;;
74510;SDS011;62991;50.040;18.400;2023-09-08T09:47:05;18.02;;;5.75;;
74510;SDS011;62991;50.040;18.400;2023-09-08T09:50:07;11.45;;;5.60;;
74510;SDS011;62991;50.040;18.400;2023-09-08T09:53:08;10.55;;;5.55;;
74510;SDS011;62991;50.040;18.400;2023-09-08T09:56:13;10.45;;;5.00;;
74510;SDS011;62991;50.040;18.400;2023-09-08T09:59:16;15.50;;;5.80;;
74510;SDS011;62991;50.040;18.400;2023-09-08T10:02:17;9.82;;;5.55;;
74510;SDS011;62991;50.040;18.400;2023-09-08T10:05:22;11.43;;;5.00;;
74510;SDS011;62991;50.040;18.400;2023-09-08T10:08:24;9.88;;;4.40;;
74510;SDS011;62991;50.040;18.400;2023-09-08T10:11:26;8.32;;;5.03;;
74510;SDS011;62991;50.040;18.400;2023-09-08T10:14:31;6.78;;;4.47;;
74510;SDS011;62991;50.040;18.400;2023-09-08T10:17:35;9.52;;;4.47;;
74510;SDS011;62991;50.040;18.400;2023-09-08T10:20:37;9.80;;;4.72;;
74510;SDS011;62991;50.040;18.400;2023-09-08T10:23:49;8.73;;;4.50;;
74510;SDS011;62991;50.040;18.400;2023-09-08T10:30:04;9.15;;;4.72;;
74510;SDS011;62991;50.040;18.400;2023-09-08T10:33:06;11.30;;;5.40;;
74510;SDS011;62991;50.040;18.400;2023-09-08T10:36:08;9.52;;;4.82;;
74510;SDS011;62991;50.040;18.400;2023-09-08T10:42:39;12.07;;;4.70;;
74510;SDS011;62991;50.040;18.400;2023-09-08T10:45:40;7.82;;;4.45;;
74510;SDS011;62991;50.040;18.400;2023-09-08T10:48:44;9.45;;;4.60;;
74510;SDS011;62991;50.040;18.400;2023-09-08T10:51:47;9.48;;;5.03;;
74510;SDS011;62991;50.040;18.400;2023-09-08T10:54:49;12.02;;;5.22;;
74510;SDS011;62991;50.040;18.400;2023-09-08T10:57:51;13.07;;;4.95;;
74510;SDS011;62991;50.040;18.400;2023-09-08T11:00:54;9.82;;;4.85;;
74510;SDS011;62991;50.040;18.400;2023-09-08T11:04:01;7.95;;;4.57;;
74510;SDS011;62991;50.040;18.400;2023-09-08T11:07:08;8.27;;;4.47;;
74510;SDS011;62991;50.040;18.400;2023-09-08T11:10:10;12.00;;;4.90;;
74510;SDS011;62991;50.040;18.400;2023-09-08T11:13:12;10.25;;;4.55;;
74510;SDS011;62991;50.040;18.400;2023-09-08T11:16:13;8.43;;;5.00;;
74510;SDS011;62991;50.040;18.400;2023-09-08T11:19:21;9.25;;;5.03;;
74510;SDS011;62991;50.040;18.400;2023-09-08T11:22:23;11.18;;;5.10;;
74510;SDS011;62991;50.040;18.400;2023-09-08T11:25:24;8.50;;;5.03;;
74510;SDS011;62991;50.040;18.400;2023-09-08T11:28:25;10.63;;;5.72;;
74510;SDS011;62991;50.040;18.400;2023-09-08T11:31:28;9.68;;;4.78;;
74510;SDS011;62991;50.040;18.400;2023-09-08T11:34:29;7.43;;;4.40;;
74510;SDS011;62991;50.040;18.400;2023-09-08T11:37:29;6.63;;;4.28;;
74510;SDS011;62991;50.040;18.400;2023-09-08T11:40:31;7.97;;;4.18;;
74510;SDS011;62991;50.040;18.400;2023-09-08T11:43:34;9.32;;;4.22;;
74510;SDS011;62991;50.040;18.400;2023-09-08T11:46:37;8.13;;;4.22;;
74510;SDS011;62991;50.040;18.400;2023-09-08T11:49:39;8.75;;;3.80;;
74510;SDS011;62991;50.040;18.400;2023-09-08T11:52:50;9.27;;;4.80;;
74510;SDS011;62991;50.040;18.400;2023-09-08T11:55:52;9.07;;;5.00;;
74510;SDS011;62991;50.040;18.400;2023-09-08T11:58:53;7.90;;;4.22;;
74510;SDS011;62991;50.040;18.400;2023-09-08T12:01:55;9.05;;;4.38;;
74510;SDS011;62991;50.040;18.400;2023-09-08T12:04:56;8.70;;;4.30;;
74510;SDS011;62991;50.040;18.400;2023-09-08T12:07:57;10.45;;;4.32;;
74510;SDS011;62991;50.040;18.400;2023-09-08T12:10:58;6.78;;;3.85;;
74510;SDS011;62991;50.040;18.400;2023-09-08T12:14:05;8.13;;;3.95;;
74510;SDS011;62991;50.040;18.400;2023-09-08T12:17:08;7.70;;;4.07;;
74510;SDS011;62991;50.040;18.400;2023-09-08T12:20:13;8.23;;;4.00;;
74510;SDS011;62991;50.040;18.400;2023-09-08T12:23:16;6.38;;;3.53;;
74510;SDS011;62991;50.040;18.400;2023-09-08T12:26:18;8.48;;;3.75;;
74510;SDS011;62991;50.040;18.400;2023-09-08T12:29:19;6.25;;;3.50;;
74510;SDS011;62991;50.040;18.400;2023-09-08T12:32:21;7.20;;;3.45;;
74510;SDS011;62991;50.040;18.400;2023-09-08T12:35:22;8.32;;;3.60;;
74510;SDS011;62991;50.040;18.400;2023-09-08T12:38:23;6.32;;;3.33;;
74510;SDS011;62991;50.040;18.400;2023-09-08T12:41:32;6.85;;;3.85;;
74510;SDS011;62991;50.040;18.400;2023-09-08T12:44:32;7.28;;;4.18;;
74510;SDS011;62991;50.040;18.400;2023-09-08T12:47:33;7.78;;;4.65;;
74510;SDS011;62991;50.040;18.400;2023-09-08T12:50:35;8.18;;;4.53;;
74510;SDS011;62991;50.040;18.400;2023-09-08T12:53:36;8.70;;;4.18;;
74510;SDS011;62991;50.040;18.400;2023-09-08T12:56:36;7.95;;;3.88;;
74510;SDS011;62991;50.040;18.400;2023-09-08T12:59:37;7.50;;;4.10;;
74510;SDS011;62991;50.040;18.400;2023-09-08T13:02:37;6.97;;;3.85;;
74510;SDS011;62991;50.040;18.400;2023-09-08T13:05:38;5.93;;;3.85;;
74510;SDS011;62991;50.040;18.400;2023-09-08T13:08:39;7.78;;;4.07;;
74510;SDS011;62991;50.040;18.400;2023-09-08T13:11:39;6.38;;;3.55;;
74510;SDS011;62991;50.040;18.400;2023-09-08T13:14:41;6.70;;;3.70;;
74510;SDS011;62991;50.040;18.400;2023-09-08T13:17:43;7.53;;;4.00;;
74510;SDS011;62991;50.040;18.400;2023-09-08T13:20:44;8.75;;;3.53;;
74510;SDS011;62991;50.040;18.400;2023-09-08T13:23:44;6.35;;;3.60;;
74510;SDS011;62991;50.040;18.400;2023-09-08T13:26:45;6.88;;;3.88;;
74510;SDS011;62991;50.040;18.400;2023-09-08T13:29:45;9.23;;;3.63;;
74510;SDS011;62991;50.040;18.400;2023-09-08T13:32:46;6.15;;;3.42;;
74510;SDS011;62991;50.040;18.400;2023-09-08T13:35:47;5.93;;;3.60;;
74510;SDS011;62991;50.040;18.400;2023-09-08T13:38:47;9.07;;;3.75;;
74510;SDS011;62991;50.040;18.400;2023-09-08T13:41:50;7.70;;;4.00;;
74510;SDS011;62991;50.040;18.400;2023-09-08T13:44:51;6.35;;;3.80;;
74510;SDS011;62991;50.040;18.400;2023-09-08T13:47:52;5.65;;;3.60;;
74510;SDS011;62991;50.040;18.400;2023-09-08T13:50:52;5.60;;;3.67;;
74510;SDS011;62991;50.040;18.400;2023-09-08T13:53:53;5.50;;;3.80;;
74510;SDS011;62991;50.040;18.400;2023-09-08T13:57:02;5.72;;;3.97;;
74510;SDS011;62991;50.040;18.400;2023-09-08T14:00:03;5.03;;;3.72;;
74510;SDS011;62991;50.040;18.400;2023-09-08T14:03:05;4.97;;;3.40;;
74510;SDS011;62991;50.040;18.400;2023-09-08T14:06:05;6.30;;;3.97;;
74510;SDS011;62991;50.040;18.400;2023-09-08T14:09:06;5.72;;;3.80;;
74510;SDS011;62991;50.040;18.400;2023-09-08T14:12:07;5.07;;;3.53;;
74510;SDS011;62991;50.040;18.400;2023-09-08T14:15:08;6.30;;;3.53;;
74510;SDS011;62991;50.040;18.400;2023-09-08T14:18:09;7.30;;;4.20;;
74510;SDS011;62991;50.040;18.400;2023-09-08T14:21:10;9.27;;;5.00;;
74510;SDS011;62991;50.040;18.400;2023-09-08T14:24:10;8.75;;;5.22;;
74510;SDS011;62991;50.040;18.400;2023-09-08T14:27:11;8.20;;;5.43;;
74510;SDS011;62991;50.040;18.400;2023-09-08T14:30:12;7.45;;;4.90;;
74510;SDS011;62991;50.040;18.400;2023-09-08T14:33:13;9.38;;;5.50;;
74510;SDS011;62991;50.040;18.400;2023-09-08T14:36:19;11.65;;;5.75;;
74510;SDS011;62991;50.040;18.400;2023-09-08T14:39:21;7.63;;;5.20;;
74510;SDS011;62991;50.040;18.400;2023-09-08T14:42:21;9.13;;;4.72;;
74510;SDS011;62991;50.040;18.400;2023-09-08T14:45:22;7.68;;;5.05;;
74510;SDS011;62991;50.040;18.400;2023-09-08T14:48:23;7.40;;;5.05;;
74510;SDS011;62991;50.040;18.400;2023-09-08T14:51:24;10.15;;;5.60;;
74510;SDS011;62991;50.040;18.400;2023-09-08T14:54:25;8.75;;;5.22;;
74510;SDS011;62991;50.040;18.400;2023-09-08T14:57:26;9.32;;;5.40;;
74510;SDS011;62991;50.040;18.400;2023-09-08T15:00:27;8.93;;;5.28;;
74510;SDS011;62991;50.040;18.400;2023-09-08T15:03:27;12.95;;;5.22;;
74510;SDS011;62991;50.040;18.400;2023-09-08T15:06:29;6.78;;;4.88;;
74510;SDS011;62991;50.040;18.400;2023-09-08T15:09:31;9.52;;;5.50;;
74510;SDS011;62991;50.040;18.400;2023-09-08T15:12:38;8.68;;;4.80;;
74510;SDS011;62991;50.040;18.400;2023-09-08T15:15:42;8.10;;;4.97;;
74510;SDS011;62991;50.040;18.400;2023-09-08T15:19:01;8.20;;;5.25;;
74510;SDS011;62991;50.040;18.400;2023-09-08T15:22:04;7.47;;;4.80;;
74510;SDS011;62991;50.040;18.400;2023-09-08T15:25:04;8.15;;;4.95;;
74510;SDS011;62991;50.040;18.400;2023-09-08T15:28:05;8.45;;;5.00;;
74510;SDS011;62991;50.040;18.400;2023-09-08T15:31:06;7.43;;;4.57;;
74510;SDS011;62991;50.040;18.400;2023-09-08T15:34:07;10.63;;;5.40;;
74510;SDS011;62991;50.040;18.400;2023-09-08T15:37:11;7.35;;;4.47;;
74510;SDS011;62991;50.040;18.400;2023-09-08T15:40:14;8.88;;;4.38;;
74510;SDS011;62991;50.040;18.400;2023-09-08T15:43:15;8.35;;;5.53;;
74510;SDS011;62991;50.040;18.400;2023-09-08T15:46:23;6.70;;;4.22;;
74510;SDS011;62991;50.040;18.400;2023-09-08T15:49:25;8.70;;;4.28;;
74510;SDS011;62991;50.040;18.400;2023-09-08T15:52:26;5.65;;;3.53;;
74510;SDS011;62991;50.040;18.400;2023-09-08T15:55:27;7.70;;;4.20;;
74510;SDS011;62991;50.040;18.400;2023-09-08T15:58:27;7.43;;;4.00;;
74510;SDS011;62991;50.040;18.400;2023-09-08T16:01:28;6.88;;;4.70;;
74510;SDS011;62991;50.040;18.400;2023-09-08T16:04:29;7.97;;;4.68;;
74510;SDS011;62991;50.040;18.400;2023-09-08T16:07:29;6.28;;;3.95;;
74510;SDS011;62991;50.040;18.400;2023-09-08T16:10:30;7.82;;;4.10;;
74510;SDS011;62991;50.040;18.400;2023-09-08T16:13:31;7.20;;;3.90;;
74510;SDS011;62991;50.040;18.400;2023-09-08T16:16:32;5.80;;;4.10;;
74510;SDS011;62991;50.040;18.400;2023-09-08T16:19:33;7.85;;;4.40;;
74510;SDS011;62991;50.040;18.400;2023-09-08T16:22:34;8.90;;;4.60;;
74510;SDS011;62991;50.040;18.400;2023-09-08T16:25:35;12.48;;;4.43;;
74510;SDS011;62991;50.040;18.400;2023-09-08T16:28:36;10.00;;;4.60;;
74510;SDS011;62991;50.040;18.400;2023-09-08T16:31:37;9.63;;;4.72;;
74510;SDS011;62991;50.040;18.400;2023-09-08T16:34:37;9.13;;;5.05;;
74510;SDS011;62991;50.040;18.400;2023-09-08T16:37:38;8.15;;;5.20;;
74510;SDS011;62991;50.040;18.400;2023-09-08T16:40:38;12.73;;;5.50;;
74510;SDS011;62991;50.040;18.400;2023-09-08T16:43:39;10.95;;;5.38;;
74510;SDS011;62991;50.040;18.400;2023-09-08T16:46:40;7.85;;;4.72;;
74510;SDS011;62991;50.040;18.400;2023-09-08T16:49:40;11.75;;;4.95;;
74510;SDS011;62991;50.040;18.400;2023-09-08T16:52:41;9.13;;;5.30;;
74510;SDS011;62991;50.040;18.400;2023-09-08T16:55:42;9.02;;;4.97;;
74510;SDS011;62991;50.040;18.400;2023-09-08T16:58:42;8.63;;;4.95;;
74510;SDS011;62991;50.040;18.400;2023-09-08T17:01:43;11.35;;;5.35;;
74510;SDS011;62991;50.040;18.400;2023-09-08T17:04:44;10.57;;;4.93;;
74510;SDS011;62991;50.040;18.400;2023-09-08T17:07:45;10.13;;;5.30;;
74510;SDS011;62991;50.040;18.400;2023-09-08T17:10:46;8.45;;;4.65;;
74510;SDS011;62991;50.040;18.400;2023-09-08T17:13:48;10.07;;;5.18;;
74510;SDS011;62991;50.040;18.400;2023-09-08T17:16:48;7.85;;;4.75;;
74510;SDS011;62991;50.040;18.400;2023-09-08T17:19:49;10.45;;;5.40;;
74510;SDS011;62991;50.040;18.400;2023-09-08T17:22:50;8.65;;;5.50;;
74510;SDS011;62991;50.040;18.400;2023-09-08T17:25:51;13.02;;;5.97;;
74510;SDS011;62991;50.040;18.400;2023-09-08T17:28:52;9.85;;;5.18;;
74510;SDS011;62991;50.040;18.400;2023-09-08T17:31:52;9.77;;;5.82;;
74510;SDS011;62991;50.040;18.400;2023-09-08T17:35:05;8.45;;;5.30;;
74510;SDS011;62991;50.040;18.400;2023-09-08T17:38:06;11.02;;;5.30;;
74510;SDS011;62991;50.040;18.400;2023-09-08T17:41:07;10.48;;;5.18;;
74510;SDS011;62991;50.040;18.400;2023-09-08T17:44:08;10.52;;;5.47;;
74510;SDS011;62991;50.040;18.400;2023-09-08T17:47:09;10.93;;;5.43;;
74510;SDS011;62991;50.040;18.400;2023-09-08T17:50:09;12.65;;;6.03;;
74510;SDS011;62991;50.040;18.400;2023-09-08T17:53:10;10.48;;;5.68;;